Time;durP1;ratioP1;P1;durP2;ratioP2;P2;SDS_P1;SDS_P2;PMS_P1;PMS_P2;Temp;Humidity;BMP_temperature;BMP_pressure;BME280_temperature;BME280_humidity;BME280_pressure;Samples;Min_cycle;Max_cycle;Signal;HPM_P1;HPM_P2
2022/11/13 00:00:39;;;;;;;1.77;1.27;;;;;;;18.31;55.24;102219.34;4996263;28;20037;-41
2022/11/13 00:03:05;;;;;;;2.35;1.38;;;;;;;18.29;55.25;102218.53;4994272;28;20034;-41
2022/11/13 00:05:30;;;;;;;3.75;1.40;;;;;;;18.29;55.33;102218.53;5025648;28;20116;-41
2022/11/13 00:07:55;;;;;;;1.92;1.13;;;;;;;18.28;55.33;102214.16;5000606;28;20147;-40
2022/11/13 00:10:21;;;;;;;2.55;1.33;;;;;;;18.29;55.38;102212.41;4994637;28;20037;-46
2022/11/13 00:12:46;;;;;;;1.73;1.30;;;;;;;18.30;55.16;102211.50;4993060;28;20042;-43
2022/11/13 00:15:11;;;;;;;1.63;0.93;;;;;;;18.28;55.20;102210.66;4992368;28;20039;-42
2022/11/13 00:17:37;;;;;;;2.28;1.25;;;;;;;18.26;55.21;102202.84;4991407;28;20048;-43
2022/11/13 00:20:03;;;;;;;1.85;1.20;;;;;;;18.28;55.22;102201.00;4992345;28;20788;-43
2022/11/13 00:22:28;;;;;;;1.88;1.35;;;;;;;18.28;55.21;102195.75;4994365;28;20045;-44
2022/11/13 00:24:54;;;;;;;1.70;1.20;;;;;;;18.28;55.18;102195.75;4996913;28;20403;-44
2022/11/13 00:27:19;;;;;;;1.40;1.00;;;;;;;18.27;55.28;102195.81;4996583;28;20080;-43
2022/11/13 00:29:45;;;;;;;1.42;1.05;;;;;;;18.27;55.27;102194.03;4994393;28;20030;-44
2022/11/13 00:32:10;;;;;;;1.92;1.42;;;;;;;18.26;55.31;102189.69;4992441;28;20454;-44
2022/11/13 00:34:36;;;;;;;2.13;1.30;;;;;;;18.27;55.24;102190.56;4995054;28;20144;-46
2022/11/13 00:37:01;;;;;;;2.60;1.10;;;;;;;18.27;55.25;102185.28;4998843;28;20038;-44
2022/11/13 00:39:26;;;;;;;2.90;1.40;;;;;;;18.26;55.13;102184.41;4999371;28;20033;-45
2022/11/13 00:41:52;;;;;;;1.90;1.13;;;;;;;18.26;55.40;102184.41;5001671;28;20041;-44
2022/11/13 00:44:17;;;;;;;1.95;1.23;;;;;;;18.25;55.27;102180.06;5001341;28;20038;-45
2022/11/13 00:46:42;;;;;;;1.45;1.00;;;;;;;18.25;55.29;102181.81;4993966;28;20061;-43
2022/11/13 00:49:08;;;;;;;2.25;1.50;;;;;;;18.23;55.41;102179.25;4997513;28;20415;-44
2022/11/13 00:51:33;;;;;;;1.65;1.10;;;;;;;18.23;55.20;102179.25;4998906;28;20777;-44
2022/11/13 00:53:59;;;;;;;2.13;1.25;;;;;;;18.23;55.16;102173.13;4997137;28;20835;-44
2022/11/13 00:56:24;;;;;;;1.67;1.30;;;;;;;18.23;55.33;102181.03;5001403;28;20038;-44
2022/11/13 00:58:50;;;;;;;2.20;1.50;;;;;;;18.23;55.19;102178.38;5000353;28;20044;-45
2022/11/13 01:01:17;;;;;;;1.70;1.20;;;;;;;18.21;55.28;102174.94;4995162;28;20057;-43
2022/11/13 01:03:43;;;;;;;1.77;1.10;;;;;;;18.23;55.19;102178.38;4998010;28;20061;-45
2022/11/13 01:06:18;;;;;;;1.92;1.10;;;;;;;18.24;55.28;102174.84;4994409;28;20109;-44
2022/11/13 01:08:43;;;;;;;1.55;1.33;;;;;;;18.26;55.25;102173.03;4989664;28;20038;-42
2022/11/13 01:11:12;;;;;;;2.33;1.60;;;;;;;18.27;54.58;102166.88;5005081;28;20037;-43
2022/11/13 01:13:42;;;;;;;4.13;1.38;;;;;;;18.27;54.81;102170.38;5003149;28;20053;-41
2022/11/13 01:16:10;;;;;;;2.78;1.60;;;;;;;18.25;54.48;102171.28;4998190;28;20037;-42
2022/11/13 01:18:35;;;;;;;4.45;2.20;;;;;;;18.23;54.11;102167.88;5001206;28;20038;-43
2022/11/13 01:21:07;;;;;;;4.10;2.00;;;;;;;18.23;54.22;102157.34;5002079;28;20163;-43
2022/11/13 01:23:33;;;;;;;6.05;2.42;;;;;;;18.22;54.23;102156.47;4999886;28;20041;-41
2022/11/13 01:26:09;;;;;;;14.10;2.50;;;;;;;18.22;54.31;102153.84;4995433;28;20441;-45
2022/11/13 01:28:35;;;;;;;9.27;2.30;;;;;;;18.25;54.10;102158.16;4991950;28;20100;-43
2022/11/13 01:31:04;;;;;;;5.75;1.90;;;;;;;18.23;54.26;102149.44;4994220;28;20038;-42
2022/11/13 01:33:29;;;;;;;6.13;2.67;;;;;;;18.23;54.11;102149.44;4994634;28;20034;-41
2022/11/13 01:36:03;;;;;;;4.40;2.33;;;;;;;18.22;54.38;102139.81;4996226;28;20108;-41
2022/11/13 01:38:29;;;;;;;5.55;2.20;;;;;;;18.22;54.41;102134.56;5004343;28;20046;-41
2022/11/13 01:40:54;;;;;;;11.43;2.33;;;;;;;18.22;54.37;102138.06;5000206;28;20052;-41
2022/11/13 01:43:29;;;;;;;3.67;2.15;;;;;;;18.23;54.11;102133.66;5009744;28;20052;-42
2022/11/13 01:45:58;;;;;;;4.50;2.08;;;;;;;18.21;54.32;102139.00;4995041;28;20042;-43
2022/11/13 01:48:30;;;;;;;4.65;2.25;;;;;;;18.21;54.31;102138.13;4996098;28;20022;-42
2022/11/13 01:50:56;;;;;;;4.88;2.47;;;;;;;18.21;54.12;102138.13;4998380;28;20105;-43
2022/11/13 01:53:22;;;;;;;6.20;2.20;;;;;;;18.20;54.38;102150.41;4996370;28;20038;-42
2022/11/13 01:55:48;;;;;;;5.18;2.53;;;;;;;18.20;54.35;102142.53;5002334;28;20041;-43
2022/11/13 01:58:13;;;;;;;4.38;2.17;;;;;;;18.21;54.34;102132.88;5004654;28;20083;-43
2022/11/13 02:00:39;;;;;;;5.93;2.28;;;;;;;18.20;54.03;102139.91;4997694;28;20529;-42
2022/11/13 02:03:04;;;;;;;4.70;2.45;;;;;;;18.20;54.16;102134.63;5002893;28;20514;-42
2022/11/13 02:05:30;;;;;;;7.28;2.13;;;;;;;18.18;54.26;102126.78;4994395;28;20049;-42
2022/11/13 02:07:56;;;;;;;3.60;2.40;;;;;;;18.19;54.14;102125.00;5027277;28;20045;-42
2022/11/13 02:10:21;;;;;;;5.88;2.55;;;;;;;18.18;54.40;102113.63;4990625;28;20030;-42
2022/11/13 02:12:50;;;;;;;2.75;2.15;;;;;;;18.19;54.18;102117.13;5003581;28;20113;-42
2022/11/13 02:15:17;;;;;;;4.00;2.40;;;;;;;18.18;54.34;102114.56;4998476;28;20058;-42
2022/11/13 02:17:57;;;;;;;4.07;2.17;;;;;;;18.18;54.19;102111.00;4992787;28;20033;-43
2022/11/13 02:20:34;;;;;;;3.17;2.20;;;;;;;18.16;54.22;102107.56;4990397;28;20049;-43
2022/11/13 02:23:05;;;;;;;3.35;2.45;;;;;;;18.18;54.12;102096.13;4998528;28;20130;-42
2022/11/13 02:25:32;;;;;;;5.28;2.28;;;;;;;18.16;54.05;102104.94;4986891;28;20043;-44
2022/11/13 02:27:57;;;;;;;5.00;2.20;;;;;;;18.17;54.07;102097.91;4994668;28;20096;-43
2022/11/13 02:30:29;;;;;;;4.47;2.50;;;;;;;18.17;54.02;102095.28;4993835;28;20499;-42
2022/11/13 02:32:56;;;;;;;4.00;2.58;;;;;;;18.17;54.04;102090.00;4997660;28;20935;-42
2022/11/13 02:35:29;;;;;;;8.40;2.67;;;;;;;18.16;53.95;102086.53;4997723;28;20045;-42
2022/11/13 02:38:02;;;;;;;4.65;2.42;;;;;;;18.16;54.07;102091.78;4991078;28;20058;-42
2022/11/13 02:40:29;;;;;;;3.25;2.28;;;;;;;18.15;54.09;102090.03;4993001;28;20052;-43
2022/11/13 02:42:54;;;;;;;3.75;2.50;;;;;;;18.16;54.03;102097.03;4998228;28;20138;-43
2022/11/13 02:45:19;;;;;;;3.10;2.17;;;;;;;18.15;54.17;102090.03;4999933;28;20112;-42
2022/11/13 02:47:45;;;;;;;3.03;2.17;;;;;;;18.15;54.15;102087.41;4998724;28;20048;-42
2022/11/13 02:50:11;;;;;;;4.93;2.58;;;;;;;18.15;53.87;102089.22;4992122;28;20054;-44
2022/11/13 02:52:37;;;;;;;4.18;2.40;;;;;;;18.15;54.02;102078.69;4992543;28;20765;-40
2022/11/13 02:55:03;;;;;;;2.35;1.83;;;;;;;18.14;54.09;102077.81;4992968;28;20049;-42
2022/11/13 02:57:28;;;;;;;2.88;2.28;;;;;;;18.12;53.94;102077.00;4993872;28;20099;-42
2022/11/13 02:59:54;;;;;;;2.88;1.95;;;;;;;18.14;53.81;102069.06;4991375;28;20042;-43
2022/11/13 03:02:19;;;;;;;3.92;2.30;;;;;;;18.14;53.80;102064.69;5000706;28;20047;-41
2022/11/13 03:04:45;;;;;;;2.70;2.33;;;;;;;18.11;54.13;102064.78;4993249;28;20489;-41
2022/11/13 03:07:11;;;;;;;3.83;2.17;;;;;;;18.12;53.87;102053.31;4992671;28;20030;-42
2022/11/13 03:09:36;;;;;;;5.05;2.28;;;;;;;18.14;53.77;102058.56;5002193;28;20044;-44
2022/11/13 03:12:01;;;;;;;4.05;2.20;;;;;;;18.12;53.95;102057.75;4999526;28;20034;-43
2022/11/13 03:14:27;;;;;;;3.38;2.42;;;;;;;18.12;54.10;102053.31;5000094;28;20709;-43
2022/11/13 03:16:52;;;;;;;3.72;2.47;;;;;;;18.11;54.03;102042.88;5001217;28;20049;-42
2022/11/13 03:19:17;;;;;;;7.40;2.03;;;;;;;18.11;53.99;102043.72;4997001;28;20049;-43
2022/11/13 03:21:43;;;;;;;4.05;2.42;;;;;;;18.11;53.83;102049.00;4990997;28;20142;-42
2022/11/13 03:24:08;;;;;;;3.00;2.30;;;;;;;18.11;53.91;102054.25;4998836;28;20073;-42
2022/11/13 03:26:33;;;;;;;2.88;2.15;;;;;;;18.12;53.91;102052.50;5000524;28;20124;-41
2022/11/13 03:28:59;;;;;;;3.47;2.55;;;;;;;18.13;53.80;102054.19;4999070;28;20029;-41
2022/11/13 03:31:24;;;;;;;3.83;2.58;;;;;;;18.13;53.74;102056.81;5009853;28;20045;-41
2022/11/13 03:33:53;;;;;;;2.35;1.95;;;;;;;18.11;53.76;102063.91;4997118;28;20552;-43
2022/11/13 03:36:18;;;;;;;3.08;2.33;;;;;;;18.11;53.76;102061.28;5000147;28;20112;-40
2022/11/13 03:38:43;;;;;;;3.15;2.20;;;;;;;18.08;53.99;102054.34;5002196;28;20041;-41
2022/11/13 03:41:09;;;;;;;3.35;2.33;;;;;;;18.11;53.71;102064.78;5003634;28;20470;-40
2022/11/13 03:43:34;;;;;;;3.15;2.45;;;;;;;18.11;53.90;102063.91;4994044;28;20045;-40
2022/11/13 03:46:00;;;;;;;2.20;1.90;;;;;;;18.10;53.70;102063.03;5000775;28;20088;-41
2022/11/13 03:48:25;;;;;;;3.47;2.38;;;;;;;18.08;53.96;102069.25;4989810;28;20042;-42
2022/11/13 03:50:53;;;;;;;4.43;2.25;;;;;;;18.09;53.86;102066.56;4993228;28;20049;-41
2022/11/13 03:53:19;;;;;;;4.20;2.55;;;;;;;18.10;53.53;102065.66;4991818;28;20042;-41
2022/11/13 03:55:46;;;;;;;3.47;2.10;;;;;;;18.10;53.78;102062.19;5007268;28;20037;-41
2022/11/13 03:58:12;;;;;;;2.97;2.67;;;;;;;18.09;53.61;102061.31;4996856;28;20108;-42
2022/11/13 04:00:39;;;;;;;2.40;2.20;;;;;;;18.08;53.79;102062.25;4999479;28;20037;-41
2022/11/13 04:03:05;;;;;;;2.30;2.10;;;;;;;18.07;53.66;102060.50;4999544;28;20491;-41
2022/11/13 04:05:30;;;;;;;3.78;2.63;;;;;;;18.09;53.77;102058.69;5000635;28;20046;-41
2022/11/13 04:07:56;;;;;;;3.75;2.55;;;;;;;18.08;53.85;102054.34;4999353;28;20046;-41
2022/11/13 04:10:21;;;;;;;4.00;2.30;;;;;;;18.07;53.75;102059.66;4993611;28;20037;-41
2022/11/13 04:12:46;;;;;;;2.78;2.10;;;;;;;18.06;53.91;102061.44;4994482;28;20037;-42
2022/11/13 04:15:12;;;;;;;2.78;2.35;;;;;;;18.08;53.60;102050.84;4997296;28;20030;-41
2022/11/13 04:17:37;;;;;;;2.35;2.00;;;;;;;18.08;53.64;102051.72;5003499;28;20706;-42
2022/11/13 04:20:03;;;;;;;3.45;2.53;;;;;;;18.07;53.75;102050.00;5000062;28;20106;-42
2022/11/13 04:22:28;;;;;;;3.33;2.75;;;;;;;18.06;53.65;102047.44;5006384;28;20156;-41
2022/11/13 04:24:54;;;;;;;2.72;2.22;;;;;;;18.06;53.39;102050.91;5002852;28;20503;-41
2022/11/13 04:27:19;;;;;;;2.55;2.30;;;;;;;18.05;53.79;102038.66;4997306;28;20091;-42
2022/11/13 04:29:44;;;;;;;4.90;2.67;;;;;;;18.05;53.51;102036.03;5002695;28;20666;-40
2022/11/13 04:32:10;;;;;;;3.10;2.53;;;;;;;18.05;53.60;102033.41;4997839;28;20033;-41
2022/11/13 04:34:35;;;;;;;4.60;2.58;;;;;;;18.04;53.58;102036.94;4997688;28;20148;-41
2022/11/13 04:37:00;;;;;;;3.10;2.20;;;;;;;18.07;53.67;102033.34;5004228;28;20037;-41
2022/11/13 04:39:26;;;;;;;2.17;1.85;;;;;;;18.06;53.79;102024.63;5004480;28;20647;-42
2022/11/13 04:44:35;;;;;;;2.42;2.10;;;;;;;18.05;53.36;102022.03;5002356;28;20041;-41
2022/11/13 04:47:00;;;;;;;3.55;2.35;;;;;;;18.03;53.70;102014.19;5007365;28;20069;-41
2022/11/13 04:49:26;;;;;;;3.55;2.50;;;;;;;18.03;53.39;102006.31;4999194;28;20046;-42
2022/11/13 04:51:51;;;;;;;2.83;2.25;;;;;;;18.03;53.49;102000.19;4994520;28;20278;-40
2022/11/13 04:54:17;;;;;;;3.67;2.30;;;;;;;18.02;53.39;101999.31;4997738;28;20033;-42
2022/11/13 04:56:42;;;;;;;3.78;2.38;;;;;;;18.02;53.57;101999.31;5003138;28;20034;-41
2022/11/13 04:59:08;;;;;;;3.65;2.63;;;;;;;18.02;53.49;102001.97;4999924;28;20164;-41
2022/11/13 05:01:35;;;;;;;2.55;2.17;;;;;;;18.03;53.53;101995.81;4996053;28;20836;-41
2022/11/13 05:04:00;;;;;;;5.30;2.78;;;;;;;18.03;53.42;101995.81;5000577;28;20123;-41
2022/11/13 05:06:26;;;;;;;4.25;2.13;;;;;;;18.03;53.58;101997.56;5003906;28;20092;-41
2022/11/13 05:08:51;;;;;;;4.20;2.47;;;;;;;18.01;53.46;101991.47;5004413;28;20535;-41
2022/11/13 05:11:16;;;;;;;3.58;1.98;;;;;;;18.01;53.36;102000.22;5003534;28;20042;-40
2022/11/13 05:13:42;;;;;;;3.13;2.40;;;;;;;18.02;53.45;101991.44;4997853;28;20046;-40
2022/11/13 05:16:10;;;;;;;4.55;2.38;;;;;;;18.02;53.43;101994.06;5000310;28;20853;-41
2022/11/13 05:18:37;;;;;;;2.72;2.20;;;;;;;18.02;53.32;101993.19;5000313;28;20442;-41
2022/11/13 05:21:04;;;;;;;3.20;2.25;;;;;;;18.02;53.33;101993.19;4999313;28;20094;-40
2022/11/13 05:23:29;;;;;;;3.67;2.13;;;;;;;18.01;53.36;101983.59;4999832;28;20038;-41
2022/11/13 05:26:03;;;;;;;3.25;2.35;;;;;;;18.01;53.29;101989.72;4996249;28;20396;-41
2022/11/13 05:28:28;;;;;;;4.15;2.15;;;;;;;18.00;53.56;101974.00;5000540;28;20101;-41
2022/11/13 05:31:05;;;;;;;2.55;2.10;;;;;;;18.01;53.68;101975.69;4999381;28;20457;-40
2022/11/13 05:33:30;;;;;;;3.88;2.13;;;;;;;18.01;53.69;101978.31;4992059;28;20030;-41
2022/11/13 05:36:03;;;;;;;2.17;1.95;;;;;;;17.99;53.48;101974.91;4995978;28;20042;-41
2022/11/13 05:38:29;;;;;;;3.92;2.05;;;;;;;17.99;53.50;101969.63;5001122;28;20040;-40
2022/11/13 05:40:59;;;;;;;2.72;2.00;;;;;;;17.99;53.61;101977.53;4999865;28;20050;-41
2022/11/13 05:43:24;;;;;;;2.72;1.88;;;;;;;17.99;53.64;101970.50;5000282;28;20113;-41
2022/11/13 05:45:50;;;;;;;3.55;2.08;;;;;;;17.98;53.49;101965.28;5001591;28;20879;-42
2022/11/13 05:48:15;;;;;;;3.63;2.55;;;;;;;17.98;53.17;101960.88;4999569;28;20042;-41
2022/11/13 05:50:40;;;;;;;2.30;2.00;;;;;;;18.02;53.56;101964.28;4991314;28;20041;-40
2022/11/13 05:53:06;;;;;;;2.90;1.92;;;;;;;18.06;53.82;101958.03;4997023;28;20108;-42
2022/11/13 05:55:31;;;;;;;3.53;1.80;;;;;;;18.07;53.84;101957.09;4997004;28;20046;-40
2022/11/13 05:57:57;;;;;;;2.60;1.98;;;;;;;18.08;53.60;101958.81;4994826;28;20057;-43
2022/11/13 06:00:23;;;;;;;2.30;2.00;;;;;;;18.10;53.25;101954.34;4995519;28;20052;-41
2022/11/13 06:02:48;;;;;;;3.08;2.15;;;;;;;18.11;53.43;101953.47;4999736;28;20037;-41
2022/11/13 06:05:14;;;;;;;3.92;1.85;;;;;;;18.11;53.29;101950.81;4998813;28;20181;-42
2022/11/13 06:07:39;;;;;;;2.83;2.53;;;;;;;18.12;53.43;101942.88;5000229;28;20810;-42
2022/11/13 06:10:05;;;;;;;2.53;1.90;;;;;;;18.12;53.12;101937.63;5000346;28;20038;-42
2022/11/13 06:12:30;;;;;;;4.22;2.00;;;;;;;18.14;53.23;101934.94;5002019;28;20033;-41
2022/11/13 06:14:56;;;;;;;2.55;2.10;;;;;;;18.14;53.24;101932.31;5000992;28;20069;-41
2022/11/13 06:17:21;;;;;;;2.47;1.90;;;;;;;18.15;53.16;101931.41;4994611;28;21500;-41
2022/11/13 06:19:47;;;;;;;2.35;1.92;;;;;;;18.13;52.57;101930.59;4999928;28;20681;-41
2022/11/13 06:22:12;;;;;;;2.08;1.88;;;;;;;18.18;53.31;101923.44;5002559;28;20058;-41
2022/11/13 06:24:37;;;;;;;2.85;1.95;;;;;;;18.19;53.19;101927.75;4994813;28;20049;-41
2022/11/13 06:27:03;;;;;;;2.35;1.92;;;;;;;18.16;53.01;101931.34;4999562;28;20062;-42
2022/11/13 06:29:28;;;;;;;2.50;2.03;;;;;;;18.20;52.93;101929.47;4999074;28;20037;-40
2022/11/13 06:31:53;;;;;;;2.28;1.98;;;;;;;18.29;53.22;101923.91;4995205;28;20136;-42
2022/11/13 06:34:19;;;;;;;2.97;2.13;;;;;;;18.39;53.19;101930.53;4995535;28;20069;-42
2022/11/13 06:36:44;;;;;;;2.08;1.88;;;;;;;18.42;52.98;101922.53;4998027;28;20442;-41
2022/11/13 06:39:11;;;;;;;2.55;2.00;;;;;;;18.46;53.05;101918.06;4994985;28;20038;-41
2022/11/13 06:41:37;;;;;;;1.92;1.70;;;;;;;18.51;52.84;101913.53;4998822;28;20149;-41
2022/11/13 06:44:03;;;;;;;2.35;1.98;;;;;;;18.49;52.87;101920.59;4999631;28;20038;-42
2022/11/13 06:46:29;;;;;;;2.70;1.98;;;;;;;18.52;52.94;101917.84;4995197;28;20108;-40
2022/11/13 06:48:55;;;;;;;2.90;2.08;;;;;;;18.53;52.69;101911.69;4995459;28;20057;-42
2022/11/13 06:51:28;;;;;;;1.98;1.70;;;;;;;18.53;52.76;101912.56;4994821;28;20847;-41
2022/11/13 06:53:54;;;;;;;2.85;2.08;;;;;;;18.52;52.75;101905.56;4998278;28;20065;-42
2022/11/13 06:56:20;;;;;;;2.10;1.90;;;;;;;18.56;52.69;101908.94;5002487;28;20037;-42
2022/11/13 06:58:46;;;;;;;2.58;2.33;;;;;;;18.56;52.65;101906.31;4996382;28;20041;-41
2022/11/13 07:01:14;;;;;;;3.42;1.90;;;;;;;18.57;52.65;101906.25;4995412;28;20072;-42
2022/11/13 07:03:41;;;;;;;2.45;2.03;;;;;;;18.58;52.71;101897.44;4997685;28;20136;-42
2022/11/13 07:06:13;;;;;;;2.35;1.85;;;;;;;18.58;52.38;101899.22;5028057;28;20025;-42
2022/11/13 07:08:40;;;;;;;1.80;1.60;;;;;;;18.58;52.66;101896.59;4998327;28;20726;-41
2022/11/13 07:11:09;;;;;;;3.92;2.10;;;;;;;18.67;51.61;101896.25;4995853;28;20117;-44
2022/11/13 07:13:36;;;;;;;4.15;2.28;;;;;;;18.51;52.32;101901.22;4999315;28;20046;-44
2022/11/13 07:16:04;;;;;;;2.45;2.25;;;;;;;18.47;52.20;101898.75;4994055;28;20394;-45
2022/11/13 07:18:30;;;;;;;2.85;2.17;;;;;;;18.47;52.41;101904.00;4995968;28;20026;-44
2022/11/13 07:20:56;;;;;;;3.80;2.20;;;;;;;18.47;52.33;101904.00;4993541;28;20050;-43
2022/11/13 07:23:22;;;;;;;2.40;1.95;;;;;;;18.45;52.39;101901.41;4999972;28;20045;-47
2022/11/13 07:25:47;;;;;;;2.90;2.10;;;;;;;18.44;52.47;101899.69;4994715;28;20037;-43
2022/11/13 07:28:13;;;;;;;2.35;2.00;;;;;;;18.45;52.48;101898.78;4999396;28;20057;-44
2022/11/13 07:30:38;;;;;;;3.28;2.40;;;;;;;18.46;52.19;101904.91;5000137;28;20064;-43
2022/11/13 07:33:04;;;;;;;2.80;2.22;;;;;;;18.45;52.47;101898.78;4999623;28;20036;-44
2022/11/13 07:35:30;;;;;;;3.55;2.22;;;;;;;18.47;52.33;101904.88;4997855;28;20657;-44
2022/11/13 07:37:56;;;;;;;3.30;2.45;;;;;;;18.47;52.43;101901.38;4998252;28;20140;-44
2022/11/13 07:40:22;;;;;;;5.40;2.28;;;;;;;18.47;52.43;101893.50;4991863;28;20037;-44
2022/11/13 07:42:47;;;;;;;3.78;2.10;;;;;;;18.46;52.24;101894.38;5000769;28;20119;-44
2022/11/13 07:45:12;;;;;;;2.63;1.98;;;;;;;18.46;52.19;101887.38;5000972;28;20026;-45
2022/11/13 07:47:38;;;;;;;3.58;2.30;;;;;;;18.49;52.45;101883.75;4997283;28;20052;-45
2022/11/13 07:50:04;;;;;;;2.13;1.88;;;;;;;18.50;52.17;101888.13;4993674;28;20209;-46
2022/11/13 07:52:29;;;;;;;3.13;2.25;;;;;;;18.49;52.19;101884.63;4999826;28;20679;-45
2022/11/13 07:54:55;;;;;;;2.38;2.10;;;;;;;18.51;52.32;101881.94;4997660;28;20395;-44
2022/11/13 07:57:21;;;;;;;3.97;2.13;;;;;;;18.51;52.18;101884.59;4995972;28;20034;-45
2022/11/13 07:59:47;;;;;;;3.10;2.33;;;;;;;18.52;52.17;101886.28;4996290;28;20041;-47
2022/11/13 08:02:15;;;;;;;2.85;2.03;;;;;;;18.52;52.19;101878.38;4983511;28;20050;-44
2022/11/13 08:04:40;;;;;;;2.70;2.30;;;;;;;18.53;52.44;101869.59;4984923;28;20573;-44
2022/11/13 08:07:06;;;;;;;2.72;2.13;;;;;;;18.52;52.29;101875.75;4978968;28;20034;-45
2022/11/13 08:09:32;;;;;;;3.03;2.22;;;;;;;18.52;52.17;101868.72;4973351;28;20034;-44
2022/11/13 08:11:58;;;;;;;2.58;2.25;;;;;;;18.48;52.15;101876.81;4970915;28;20118;-46
2022/11/13 08:14:23;;;;;;;3.45;2.38;;;;;;;18.51;52.34;101869.63;4975470;28;20038;-43
2022/11/13 08:16:48;;;;;;;4.35;2.35;;;;;;;18.52;52.31;101874.00;4975373;28;20140;-44
2022/11/13 08:19:14;;;;;;;5.18;2.00;;;;;;;18.51;52.27;101874.06;4992913;28;20038;-44
2022/11/13 08:21:39;;;;;;;3.20;2.35;;;;;;;18.53;52.19;101864.31;4990342;28;20447;-44
2022/11/13 08:24:05;;;;;;;5.15;2.40;;;;;;;18.55;52.46;101873.00;4981128;28;20057;-44
2022/11/13 08:26:30;;;;;;;5.75;2.20;;;;;;;18.52;52.56;101867.84;4979500;28;20049;-44
2022/11/13 08:28:55;;;;;;;3.05;2.13;;;;;;;18.52;52.27;101863.47;4984726;28;20062;-45
2022/11/13 08:31:21;;;;;;;3.65;2.28;;;;;;;18.50;52.43;101857.41;4979852;28;20137;-45
2022/11/13 08:33:46;;;;;;;5.32;2.17;;;;;;;18.52;52.41;101859.97;4979048;28;20042;-44
2022/11/13 08:36:11;;;;;;;4.55;2.10;;;;;;;18.52;52.44;101857.34;4978916;28;20125;-44
2022/11/13 08:38:37;;;;;;;3.08;2.10;;;;;;;18.53;52.48;101854.66;4971257;28;20903;-46
2022/11/13 08:41:05;;;;;;;4.07;2.15;;;;;;;18.56;52.37;101856.31;4977193;28;20058;-46
2022/11/13 08:43:30;;;;;;;2.10;1.90;;;;;;;18.61;52.36;101857.88;4980243;28;20034;-45
2022/11/13 08:45:56;;;;;;;2.97;2.10;;;;;;;18.65;52.25;101856.84;4978853;28;20092;-44
2022/11/13 08:48:22;;;;;;;3.78;2.17;;;;;;;18.67;52.18;101847.09;4967784;28;20085;-44
2022/11/13 08:50:55;;;;;;;2.45;2.25;;;;;;;18.67;52.25;101843.59;4975019;28;20802;-45
2022/11/13 08:53:21;;;;;;;4.38;2.22;;;;;;;18.69;52.36;101844.41;4979049;28;20230;-45
2022/11/13 08:55:47;;;;;;;2.70;2.30;;;;;;;18.66;52.32;101841.88;4977212;28;20046;-45
2022/11/13 08:58:12;;;;;;;2.60;2.00;;;;;;;18.93;52.20;101834.72;4982954;28;20039;-45
2022/11/13 09:00:38;;;;;;;4.38;2.00;;;;;;;18.93;52.20;101835.56;4976566;28;20112;-44
2022/11/13 09:03:03;;;;;;;2.55;2.10;;;;;;;18.94;51.99;101833.81;4976918;28;20030;-44
2022/11/13 09:05:29;;;;;;;3.55;2.03;;;;;;;18.92;52.26;101835.66;4980464;28;20089;-45
2022/11/13 09:08:00;;;;;;;5.20;1.83;;;;;;;18.93;52.10;101832.94;4983368;28;20061;-45
2022/11/13 09:10:26;;;;;;;6.10;1.70;;;;;;;18.97;51.89;101829.28;4980518;28;20050;-44
2022/11/13 09:13:04;;;;;;;7.72;2.50;;;;;;;18.91;52.36;101826.03;4972352;28;20034;-45
2022/11/13 09:15:31;;;;;;;10.77;2.95;;;;;;;18.93;52.62;101822.41;4979123;28;20849;-45
2022/11/13 09:17:58;;;;;;;9.93;2.38;;;;;;;18.94;52.70;101832.03;4982116;28;20450;-45
2022/11/13 09:20:24;;;;;;;11.32;2.97;;;;;;;19.02;52.92;101829.09;4977243;28;20111;-45
2022/11/13 09:23:02;;;;;;;9.90;2.40;;;;;;;19.18;52.95;101828.44;4978470;28;20092;-45
2022/11/13 09:25:30;;;;;;;6.72;2.53;;;;;;;19.19;53.17;101827.50;4975649;28;20038;-45
2022/11/13 09:27:58;;;;;;;9.18;2.50;;;;;;;19.16;52.85;101822.34;4979647;28;20446;-45
2022/11/13 09:30:24;;;;;;;11.82;2.70;;;;;;;19.11;53.19;101821.69;4987357;28;20031;-46
2022/11/13 09:32:56;;;;;;;14.18;2.72;;;;;;;19.14;53.12;101831.25;4983774;28;20081;-45
2022/11/13 09:35:35;;;;;;;8.82;2.50;;;;;;;19.16;52.96;101827.63;4977194;28;20116;-44
2022/11/13 09:38:06;;;;;;;13.45;2.28;;;;;;;19.20;52.55;101826.59;4980244;28;20034;-43
2022/11/13 09:40:39;;;;;;;9.98;2.20;;;;;;;19.21;52.27;101827.47;4978903;28;20400;-43
2022/11/13 09:43:25;;;;;;;8.48;2.28;;;;;;;19.17;52.26;101818.81;4972678;28;20035;-44
2022/11/13 09:45:55;;;;;;;12.75;3.17;;;;;;;19.08;52.45;101821.81;4975510;28;20031;-44
2022/11/13 09:48:33;;;;;;;5.22;2.58;;;;;;;19.05;52.45;101823.69;4973555;28;20026;-44
2022/11/13 09:51:03;;;;;;;13.30;2.90;;;;;;;19.07;52.46;101828.00;4972322;28;20105;-43
2022/11/13 09:53:34;;;;;;;9.60;2.22;;;;;;;19.12;52.34;101819.91;5003703;28;20471;-43
2022/11/13 09:56:06;;;;;;;9.55;2.75;;;;;;;19.12;52.17;101815.50;4980106;28;20045;-43
2022/11/13 09:59:05;;;;;;;10.98;1.98;;;;;;;19.15;52.10;101823.28;4979674;28;20077;-43
2022/11/13 10:01:43;;;;;;;7.57;2.20;;;;;;;19.18;52.09;101811.78;4981095;28;20042;-44
2022/11/13 10:04:13;;;;;;;7.13;2.22;;;;;;;19.10;52.37;101813.88;4979084;28;20034;-44
2022/11/13 10:07:04;;;;;;;2.75;1.98;;;;;;;19.08;52.33;101807.78;4982131;28;20076;-44
2022/11/13 10:09:49;;;;;;;6.32;1.95;;;;;;;19.11;52.02;101805.03;4978956;28;20018;-44
2022/11/13 10:12:14;;;;;;;;;;;;;;;19.10;52.11;101801.56;4978604;28;20046;-46
2022/11/13 10:14:45;;;;;;;6.93;2.17;;;;;;;19.15;52.13;101804.84;4982957;28;20393;-44
2022/11/13 10:17:25;;;;;;;10.05;2.63;;;;;;;19.19;51.97;101806.44;4976923;28;20045;-44
2022/11/13 10:19:56;;;;;;;9.25;2.20;;;;;;;19.11;52.27;101805.88;4976567;28;20101;-44
2022/11/13 10:22:35;;;;;;;6.97;2.47;;;;;;;19.07;52.30;101804.31;4985888;28;20035;-44
2022/11/13 10:25:09;;;;;;;2.65;1.90;;;;;;;19.08;52.30;101803.38;4976574;28;20153;-44
2022/11/13 10:27:35;;;;;;;7.90;2.00;;;;;;;19.08;52.51;101797.25;4981060;28;20557;-42
2022/11/13 10:30:01;;;;;;;6.72;2.15;;;;;;;19.10;52.54;101798.06;4972541;28;20030;-43
2022/11/13 10:32:31;;;;;;;3.13;2.05;;;;;;;19.09;52.42;101791.06;4980990;28;20038;-44
2022/11/13 10:35:16;;;;;;;4.40;2.35;;;;;;;19.09;52.36;101780.53;4976213;28;20038;-44
2022/11/13 10:37:57;;;;;;;3.72;1.65;;;;;;;19.05;52.38;101779.78;4976595;28;20332;-44
2022/11/13 10:40:24;;;;;;;5.22;2.13;;;;;;;19.03;52.39;101771.09;4978947;28;20802;-43
2022/11/13 10:42:50;;;;;;;3.70;1.90;;;;;;;19.03;52.22;101771.09;4983543;28;20510;-43
2022/11/13 10:45:18;;;;;;;4.43;1.52;;;;;;;19.04;52.33;101767.56;4975986;28;20031;-43
2022/11/13 10:47:49;;;;;;;3.53;2.00;;;;;;;19.06;52.33;101759.59;4974344;28;20039;-46
2022/11/13 10:50:21;;;;;;;3.72;1.70;;;;;;;19.04;52.39;101767.56;4969961;28;20038;-44
2022/11/13 10:52:49;;;;;;;2.85;1.60;;;;;;;19.05;52.26;101755.22;4976133;28;20046;-44
2022/11/13 10:55:28;;;;;;;3.05;1.80;;;;;;;19.04;52.22;101757.03;4976142;28;20038;-44
2022/11/13 10:57:58;;;;;;;4.95;1.98;;;;;;;19.00;52.32;101744.03;4978084;28;20084;-44
2022/11/13 11:00:37;;;;;;;3.92;2.00;;;;;;;19.01;52.36;101746.63;4969374;28;20031;-44
2022/11/13 11:03:07;;;;;;;3.05;1.80;;;;;;;19.05;52.35;101735.03;4975175;28;20041;-44
2022/11/13 11:05:34;;;;;;;6.68;2.00;;;;;;;19.00;52.44;101737.00;4987124;28;20042;-44
2022/11/13 11:07:59;;;;;;;3.78;1.55;;;;;;;19.00;52.13;101731.72;4976830;28;20038;-43
2022/11/13 11:12:14;;;;;;;5.00;1.98;;;;;;;19.04;52.06;101725.44;4977984;28;20148;-42
2022/11/13 11:13:22;;;;;;;3.85;1.65;;;;;;;19.00;52.16;101712.44;4973507;28;20811;-45
2022/11/13 11:15:53;;;;;;;3.92;1.83;;;;;;;19.00;52.23;101707.16;4970022;28;20042;-42
2022/11/13 11:18:31;;;;;;;2.75;1.67;;;;;;;19.01;51.97;101706.25;4974238;28;20112;-44
2022/11/13 11:21:00;;;;;;;2.05;1.33;;;;;;;18.98;52.32;101703.75;4974234;28;20054;-44
2022/11/13 11:23:49;;;;;;;3.55;1.42;;;;;;;19.00;52.21;101696.63;4978158;28;20709;-43
2022/11/13 11:26:22;;;;;;;4.78;1.92;;;;;;;19.00;52.43;101688.72;4977772;28;20542;-44
2022/11/13 11:29:12;;;;;;;3.05;1.90;;;;;;;19.00;52.37;101683.47;4977368;28;20038;-43